Time;durP1;ratioP1;P1;durP2;ratioP2;P2;SDS_P1;SDS_P2;PMS_P1;PMS_P2;Temp;Humidity;BMP_temperature;BMP_pressure;BME280_temperature;BME280_humidity;BME280_pressure;Samples;Min_cycle;Max_cycle;Signal;HPM_P1;HPM_P2
2023/01/26 00:01:21;;;;;;;26.67;14.30;;;;;;;0.98;88.00;101248.50;1465015;89;22470;-83
2023/01/26 00:03:47;;;;;;;29.93;16.17;;;;;;;0.98;88.08;101237.64;1466949;88;22603;-80
2023/01/26 00:06:17;;;;;;;26.97;14.73;;;;;;;0.98;88.03;101245.47;1462052;88;21571;-82
2023/01/26 00:08:48;;;;;;;27.73;15.13;;;;;;;1.01;88.08;101237.97;1465654;89;21683;-82
2023/01/26 00:11:17;;;;;;;29.67;16.77;;;;;;;1.01;88.43;101236.67;1475711;88;21721;-80
2023/01/26 00:13:44;;;;;;;26.93;15.47;;;;;;;0.99;88.11;101235.88;1460821;89;21603;-81
2023/01/26 00:16:14;;;;;;;26.80;15.40;;;;;;;0.95;88.41;101233.00;1466318;88;21633;-79
2023/01/26 00:18:42;;;;;;;28.43;15.63;;;;;;;0.95;88.25;101233.00;1469919;88;21716;-80
2023/01/26 00:21:15;;;;;;;31.10;17.67;;;;;;;0.96;88.43;101226.89;1466737;89;21629;-81
2023/01/26 00:23:42;;;;;;;30.87;18.23;;;;;;;0.95;88.69;101222.57;1467796;88;22097;-80
2023/01/26 00:26:12;;;;;;;34.17;18.63;;;;;;;0.96;88.80;101225.59;1470907;88;21699;-80
2023/01/26 00:28:38;;;;;;;32.47;18.07;;;;;;;0.97;88.54;101224.66;1465736;88;22424;-80
2023/01/26 00:31:14;;;;;;;40.03;21.77;;;;;;;0.97;88.75;101219.45;1465944;89;21581;-81
2023/01/26 00:33:41;;;;;;;37.03;18.97;;;;;;;0.97;88.59;101216.84;1464614;89;21729;-82
2023/01/26 00:36:08;;;;;;;34.30;19.37;;;;;;;0.96;88.92;101211.25;1470884;88;21625;-84
2023/01/26 00:38:34;;;;;;;38.17;21.37;;;;;;;0.93;88.95;101210.09;1468722;88;22520;-84
2023/01/26 00:41:00;;;;;;;36.00;19.27;;;;;;;0.90;88.93;101209.30;1468517;89;21663;-81
2023/01/26 00:43:27;;;;;;;36.63;17.03;;;;;;;0.90;88.95;101209.30;1465311;88;21604;-83
2023/01/26 00:45:53;;;;;;;28.33;16.47;;;;;;;0.90;89.43;101210.59;1470742;88;22577;-84
2023/01/26 00:48:19;;;;;;;25.47;15.30;;;;;;;0.91;89.28;101207.53;1470182;88;21569;-84
2023/01/26 00:50:45;;;;;;;30.73;16.47;;;;;;;0.94;89.23;101209.16;1462166;89;21610;-82
2023/01/26 00:53:11;;;;;;;29.63;18.20;;;;;;;0.92;89.08;101195.34;1453502;89;21685;-84
2023/01/26 00:55:38;;;;;;;28.43;17.03;;;;;;;0.92;89.08;101195.34;1463731;88;21922;-82
2023/01/26 00:58:06;;;;;;;28.97;16.77;;;;;;;0.95;88.97;101199.98;1468050;89;22012;-84
2023/01/26 01:00:36;;;;;;;24.97;16.47;;;;;;;0.93;89.25;101201.80;1468602;89;22614;-83
2023/01/26 01:03:04;;;;;;;31.07;16.20;;;;;;;0.93;88.98;101190.53;1467181;89;21603;-83
2023/01/26 01:05:32;;;;;;;25.87;16.43;;;;;;;0.94;88.96;101193.06;1464461;89;21652;-83
2023/01/26 01:07:59;;;;;;;26.20;16.47;;;;;;;0.95;88.95;101188.69;1461253;88;21434;-82
2023/01/26 01:10:28;;;;;;;26.17;15.23;;;;;;;0.95;88.78;101189.98;1473241;89;21719;-83
2023/01/26 01:12:55;;;;;;;29.63;17.87;;;;;;;0.95;88.70;101182.17;1469137;88;21721;-81
2023/01/26 01:15:21;;;;;;;41.47;24.33;;;;;;;0.94;88.83;101181.79;1468964;89;21772;-83
2023/01/26 01:17:48;;;;;;;52.03;27.23;;;;;;;0.90;88.55;101178.02;1466898;88;22458;-82
2023/01/26 01:20:14;;;;;;;42.53;23.20;;;;;;;0.90;88.58;101178.02;1466440;89;21484;-82
2023/01/26 01:22:41;;;;;;;34.40;19.33;;;;;;;0.90;88.69;101175.87;1459893;89;22193;-82
2023/01/26 01:25:08;;;;;;;32.60;17.67;;;;;;;0.91;88.54;101168.44;1464676;88;21662;-81
2023/01/26 01:27:34;;;;;;;29.67;17.07;;;;;;;0.94;88.62;101172.67;1468506;89;21688;-81
2023/01/26 01:30:06;;;;;;;28.27;18.33;;;;;;;0.94;88.52;101168.76;1460103;88;22564;-82
2023/01/26 01:32:28;;;;;;;27.37;17.03;;;;;;;0.94;88.31;101170.06;1464521;88;21728;-81
2023/01/26 01:34:54;;;;;;;36.70;20.20;;;;;;;0.92;88.13;101169.27;1470301;89;21754;-82
2023/01/26 01:37:21;;;;;;;36.07;20.90;;;;;;;0.90;88.03;101167.59;1464544;89;21617;-81
2023/01/26 01:39:48;;;;;;;36.90;21.63;;;;;;;0.89;87.91;101167.64;1466325;89;21596;-82
2023/01/26 01:42:15;;;;;;;41.70;22.40;;;;;;;0.90;87.98;101163.69;1468653;88;21600;-81
2023/01/26 01:44:42;;;;;;;38.23;22.00;;;;;;;0.92;87.85;101165.36;1463421;88;22139;-82
2023/01/26 01:47:20;;;;;;;43.90;24.33;;;;;;;0.94;87.70;101162.24;1467061;88;21627;-81
2023/01/26 01:49:50;;;;;;;42.00;23.33;;;;;;;0.96;87.52;101164.34;1465541;88;21663;-81
2023/01/26 01:52:27;;;;;;;31.90;18.47;;;;;;;0.93;86.26;101163.17;1465026;88;21619;-80
2023/01/26 01:55:06;;;;;;;28.57;15.97;;;;;;;0.94;86.00;101157.03;1464281;88;21566;-82
2023/01/26 01:57:50;;;;;;;26.13;14.60;;;;;;;0.92;86.27;101155.78;1458377;88;21759;-81
2023/01/26 02:00:20;;;;;;;26.33;15.67;;;;;;;0.90;85.83;101152.42;1466413;87;21980;-81
2023/01/26 02:03:09;;;;;;;32.00;16.73;;;;;;;0.88;85.45;101140.74;1473801;88;21659;-81
2023/01/26 02:05:56;;;;;;;25.03;15.33;;;;;;;0.88;84.33;101129.48;1467558;88;21567;-82
2023/01/26 02:08:37;;;;;;;24.50;16.03;;;;;;;0.83;84.30;101134.87;1465746;88;21486;-80
2023/01/26 02:11:08;;;;;;;30.95;17.37;;;;;;;0.82;83.96;101137.58;1468719;89;21745;-82
2023/01/26 02:13:36;;;;;;;29.50;16.70;;;;;;;0.81;84.42;101128.91;1445397;89;21493;-81
2023/01/26 02:16:03;;;;;;;29.50;16.73;;;;;;;0.82;84.56;101127.98;1462580;88;21720;-82
2023/01/26 02:18:30;;;;;;;30.33;16.67;;;;;;;0.80;84.14;101121.98;1468781;88;21876;-79
2023/01/26 02:21:05;;;;;;;26.13;16.27;;;;;;;0.81;84.46;101128.08;1462555;88;21662;-80
2023/01/26 02:23:43;;;;;;;21.73;13.73;;;;;;;0.77;83.51;101115.61;1472313;89;21578;-81
2023/01/26 02:26:22;;;;;;;23.60;12.27;;;;;;;0.75;82.79;101112.69;1469054;87;21693;-82
2023/01/26 02:28:49;;;;;;;20.47;12.33;;;;;;;0.71;80.67;101112.44;1470164;88;21556;-80
2023/01/26 02:31:16;;;;;;;25.57;12.77;;;;;;;0.70;80.67;101106.85;1464265;89;21679;-82
2023/01/26 02:33:44;;;;;;;22.03;11.03;;;;;;;0.69;80.15;101099.47;1472733;89;21585;-81
2023/01/26 02:36:23;;;;;;;20.13;12.20;;;;;;;0.71;80.87;101097.65;1464826;88;21812;-81
2023/01/26 02:39:29;;;;;;;21.93;12.77;;;;;;;0.73;81.59;101097.13;1467387;88;21656;-84
2023/01/26 02:44:41;;;;;;;19.63;11.47;;;;;;;0.75;81.54;101094.02;1470271;89;21642;-83
2023/01/26 02:47:14;;;;;;;21.97;12.33;;;;;;;0.74;81.43;101084.48;1458751;89;21716;-81
2023/01/26 02:49:47;;;;;;;20.77;12.67;;;;;;;0.73;81.40;101085.88;1464017;89;21574;-81
2023/01/26 02:52:15;;;;;;;24.43;13.53;;;;;;;0.72;81.62;101086.33;1464664;88;22566;-80
2023/01/26 02:57:27;;;;;;;18.07;10.57;;;;;;;0.66;80.90;101073.12;1464773;89;21702;-80
2023/01/26 02:59:53;;;;;;;22.17;11.70;;;;;;;0.59;80.37;101070.38;1471064;88;21665;-82
2023/01/26 03:02:19;;;;;;;20.77;10.93;;;;;;;0.55;80.34;101068.84;1466343;88;21885;-84
2023/01/26 03:04:46;;;;;;;23.30;11.40;;;;;;;0.49;80.41;101062.61;1466524;89;22653;-84
2023/01/26 03:07:12;;;;;;;17.67;10.40;;;;;;;0.45;80.51;101057.13;1468262;88;21617;-83
2023/01/26 03:09:38;;;;;;;17.90;10.50;;;;;;;0.37;79.62;101060.05;1472035;89;21661;-83
2023/01/26 03:12:05;;;;;;;17.23;10.07;;;;;;;0.31;79.81;101060.33;1451291;89;21683;-82
2023/01/26 03:14:31;;;;;;;21.93;12.13;;;;;;;0.26;80.23;101061.44;1457245;88;21908;-82
2023/01/26 03:16:58;;;;;;;18.27;11.17;;;;;;;0.21;80.53;101052.54;1466570;88;21447;-80
2023/01/26 03:27:47;;;;;;;21.93;10.63;;;;;;;-0.12;80.15;101044.39;1469692;89;21781;-81
2023/01/26 03:30:17;;;;;;;16.97;9.80;;;;;;;-0.20;80.70;101042.13;1464172;87;21821;-82
2023/01/26 03:32:44;;;;;;;16.93;9.03;;;;;;;-0.27;80.94;101037.62;1461513;88;21654;-82
2023/01/26 03:35:21;;;;;;;14.97;9.87;;;;;;;-0.34;80.82;101043.16;1461365;89;21609;-81
2023/01/26 03:37:45;;;;;;;19.20;10.77;;;;;;;-0.41;81.16;101041.23;1462178;88;21749;-81
2023/01/26 03:56:44;;;;;;;19.55;10.10;;;;;;;-0.80;81.96;101013.35;1474077;89;21462;-82
2023/01/26 03:59:14;;;;;;;20.25;10.98;;;;;;;-0.85;82.34;101012.67;1467710;88;22544;-82
2023/01/26 04:09:57;;;;;;;16.57;10.85;;;;;;;-1.05;83.36;101005.66;1468451;89;21470;-79
2023/01/26 04:12:23;;;;;;;19.67;11.70;;;;;;;-1.08;83.76;100999.74;1470525;88;21425;-81
2023/01/26 04:23:06;;;;;;;20.62;12.60;;;;;;;-1.07;84.71;101002.72;1469668;89;21382;-82
2023/01/26 04:25:32;;;;;;;19.57;11.10;;;;;;;-1.07;84.70;101002.27;1475823;88;21507;-82
2023/01/26 04:27:58;;;;;;;18.75;10.18;;;;;;;-1.06;84.72;100997.94;1466645;87;21397;-81
2023/01/26 04:30:24;;;;;;;17.25;9.43;;;;;;;-1.01;84.94;100995.98;1461235;88;21322;-82
2023/01/26 04:32:51;;;;;;;21.07;10.18;;;;;;;-0.97;84.80;100998.88;1468490;88;21536;-82
2023/01/26 04:35:17;;;;;;;15.85;9.75;;;;;;;-0.93;84.77;100997.38;1479541;88;21389;-82
2023/01/26 04:37:44;;;;;;;18.42;10.38;;;;;;;-0.87;84.86;100990.25;1474121;88;21359;-82
2023/01/26 04:40:11;;;;;;;15.80;9.68;;;;;;;-0.84;84.74;100995.33;1461200;89;21359;-82
2023/01/26 04:42:37;;;;;;;15.90;8.73;;;;;;;-0.78;84.54;100992.48;1467135;88;21352;-80
2023/01/26 04:45:04;;;;;;;19.03;9.90;;;;;;;-0.74;84.48;100988.87;1468389;88;22115;-81
2023/01/26 04:47:31;;;;;;;19.40;10.53;;;;;;;-0.70;84.31;100996.46;1471342;88;21602;-81
2023/01/26 04:49:57;;;;;;;14.53;8.83;;;;;;;-0.65;84.45;100998.05;1458641;89;21375;-81
2023/01/26 04:52:23;;;;;;;14.63;8.47;;;;;;;-0.62;84.13;100996.16;1462125;88;21374;-80
2023/01/26 04:54:50;;;;;;;16.40;10.13;;;;;;;-0.61;83.58;100992.64;1464694;88;21903;-82
2023/01/26 04:57:19;;;;;;;15.83;8.20;;;;;;;-0.57;83.27;100994.69;1465623;88;22169;-81
2023/01/26 04:59:44;;;;;;;13.93;8.90;;;;;;;-0.54;83.36;100993.26;1466214;88;21899;-81
2023/01/26 05:02:10;;;;;;;19.90;9.18;;;;;;;-0.49;83.78;100996.49;1464191;88;21864;-81
2023/01/26 05:04:37;;;;;;;13.77;8.60;;;;;;;-0.44;83.80;100991.95;1470571;88;21390;-79
2023/01/26 05:07:03;;;;;;;16.10;8.77;;;;;;;-0.39;83.84;100995.67;1469122;88;22070;-80
2023/01/26 05:09:29;;;;;;;15.13;8.60;;;;;;;-0.38;83.33;100990.86;1471449;89;21707;-81
2023/01/26 05:12:32;;;;;;;12.37;7.77;;;;;;;-0.38;83.17;100985.66;1476782;87;21644;-79
2023/01/26 05:14:24;;;;;;;16.07;9.83;;;;;;;-0.35;83.35;100986.36;1471774;88;21729;-81
2023/01/26 05:16:50;;;;;;;16.97;8.97;;;;;;;-0.34;82.93;100988.53;1469414;89;21759;-80
2023/01/26 05:19:16;;;;;;;14.43;7.53;;;;;;;-0.35;82.50;100986.36;1460264;88;21544;-81
2023/01/26 05:21:43;;;;;;;14.90;9.57;;;;;;;-0.33;82.29;100987.61;1463257;88;22577;-81
2023/01/26 05:24:10;;;;;;;15.00;9.00;;;;;;;-0.32;82.43;100985.39;1462138;88;21714;-85
2023/01/26 05:26:37;;;;;;;16.63;9.13;;;;;;;-0.28;82.83;100984.38;1469574;88;21829;-88
2023/01/26 05:29:03;;;;;;;29.10;13.13;;;;;;;-0.26;82.78;100975.59;1470721;88;21753;-88
2023/01/26 05:31:29;;;;;;;25.43;13.47;;;;;;;-0.24;82.87;100974.21;1467943;89;21595;-86
2023/01/26 05:33:55;;;;;;;28.03;16.80;;;;;;;-0.22;82.92;100978.91;1464092;89;22711;-91
2023/01/26 05:36:21;;;;;;;28.37;15.93;;;;;;;-0.21;82.90;100983.19;1468328;89;21628;-92
2023/01/26 05:38:47;;;;;;;27.77;14.70;;;;;;;-0.21;82.73;100986.25;1445488;89;21784;-89
2023/01/26 05:41:13;;;;;;;22.60;14.63;;;;;;;-0.21;82.42;100984.48;1449540;89;21639;-91
2023/01/26 05:43:39;;;;;;;22.77;13.23;;;;;;;-0.21;82.54;100988.39;1459319;88;21598;-87
2023/01/26 05:46:05;;;;;;;23.93;11.53;;;;;;;-0.22;82.42;100984.57;1450060;89;21538;-92
2023/01/26 05:48:32;;;;;;;20.40;10.37;;;;;;;-0.21;82.58;100986.25;1467541;89;21645;-91
2023/01/26 05:50:58;;;;;;;24.57;11.70;;;;;;;-0.22;82.54;100988.47;1463603;88;21589;-89
2023/01/26 05:53:24;;;;;;;19.47;10.60;;;;;;;-0.23;82.29;100990.23;1457111;89;21619;-89
2023/01/26 05:55:51;;;;;;;22.67;11.67;;;;;;;-0.22;82.24;100997.58;1466406;89;21395;-92
2023/01/26 05:58:17;;;;;;;29.40;13.10;;;;;;;-0.21;82.38;100988.39;1464629;89;21589;-91
2023/01/26 06:00:43;;;;;;;20.50;11.17;;;;;;;-0.20;82.24;100994.00;1471161;88;22133;-89
2023/01/26 06:03:09;;;;;;;21.77;11.93;;;;;;;-0.17;82.33;100989.09;1470133;89;21685;-91
2023/01/26 06:05:37;;;;;;;18.80;10.57;;;;;;;-0.19;82.36;100991.78;1470270;88;21528;-91
2023/01/26 06:08:04;;;;;;;22.93;12.30;;;;;;;-0.16;82.50;100987.75;1464285;89;21690;-91
2023/01/26 06:10:30;;;;;;;22.47;11.33;;;;;;;-0.12;82.84;100991.89;1458986;88;21566;-90
2023/01/26 06:12:58;;;;;;;32.50;11.87;;;;;;;-0.12;82.50;100992.36;1463735;89;21569;-91
2023/01/26 06:15:25;;;;;;;23.03;12.83;;;;;;;-0.13;82.39;100990.67;1451374;88;21721;-91
2023/01/26 06:17:51;;;;;;;25.27;10.37;;;;;;;-0.13;82.28;100988.08;1465214;89;21621;-91
2023/01/26 06:20:17;;;;;;;25.80;12.33;;;;;;;-0.12;82.18;100987.15;1459848;89;21658;-89
2023/01/26 06:22:43;;;;;;;23.07;14.13;;;;;;;-0.12;82.26;100990.59;1467194;88;21654;-86
2023/01/26 06:25:09;;;;;;;22.83;12.80;;;;;;;-0.11;82.42;100992.77;1450113;89;22492;-91
2023/01/26 06:27:35;;;;;;;23.77;13.30;;;;;;;-0.10;82.72;100986.17;1464292;89;21565;-88
2023/01/26 06:30:04;;;;;;;33.43;15.83;;;;;;;-0.10;82.75;100995.28;1468415;89;21660;-87
2023/01/26 06:32:30;;;;;;;33.80;14.10;;;;;;;-0.08;82.73;100990.88;1463467;89;21713;-92
2023/01/26 06:34:56;;;;;;;32.27;13.40;;;;;;;-0.06;82.42;100992.95;1479627;89;21713;-92
2023/01/26 06:37:22;;;;;;;31.80;16.70;;;;;;;-0.05;82.58;100984.23;1454474;89;22567;-88
2023/01/26 06:39:48;;;;;;;41.80;14.97;;;;;;;-0.04;82.50;100980.70;1455681;89;21656;-91
2023/01/26 06:42:14;;;;;;;34.73;15.43;;;;;;;-0.03;82.70;100982.84;1450218;89;21656;-91
2023/01/26 06:44:40;;;;;;;29.57;15.87;;;;;;;0.01;82.80;100983.58;1449801;89;21621;-89
2023/01/26 06:47:07;;;;;;;29.00;15.43;;;;;;;0.02;83.15;100983.96;1470838;88;22563;-89
2023/01/26 06:49:33;;;;;;;35.80;18.50;;;;;;;0.02;83.31;100978.75;1448522;89;21595;-91
2023/01/26 06:52:19;;;;;;;42.20;18.33;;;;;;;0.05;83.12;100982.06;1471349;88;21751;-91
2023/01/26 06:54:50;;;;;;;37.50;20.27;;;;;;;0.06;83.10;100975.97;1460609;89;21948;-91
2023/01/26 06:57:16;;;;;;;;;;;;;;;0.09;83.30;100973.69;1465968;88;21707;-89
2023/01/26 06:59:42;;;;;;;35.67;15.97;;;;;;;0.10;83.82;100968.86;1413269;90;20345;-90
2023/01/26 07:02:19;;;;;;;36.80;16.97;;;;;;;0.12;83.74;100967.05;1463954;88;22955;-91
2023/01/26 07:04:47;;;;;;;35.53;16.13;;;;;;;0.15;83.77;100970.81;1467392;89;21448;-92
2023/01/26 07:07:13;;;;;;;31.13;15.07;;;;;;;0.18;84.01;100961.56;1470116;88;21634;-92
2023/01/26 07:09:40;;;;;;;29.57;15.57;;;;;;;0.22;83.69;100968.31;1470977;89;21599;-92
2023/01/26 07:12:06;;;;;;;34.43;17.07;;;;;;;0.28;83.76;100965.89;1466039;89;22594;-88
2023/01/26 07:14:33;;;;;;;32.27;15.17;;;;;;;0.30;82.91;100966.22;1475970;88;21716;-92
2023/01/26 07:17:01;;;;;;;31.93;16.43;;;;;;;0.37;82.89;100957.20;1465060;88;22501;-90
2023/01/26 07:19:29;;;;;;;24.57;14.20;;;;;;;0.41;82.80;100965.27;1475219;88;21833;-91
2023/01/26 07:21:55;;;;;;;27.47;15.27;;;;;;;0.47;82.71;100958.95;1468652;88;21704;-91
2023/01/26 07:24:21;;;;;;;30.63;16.97;;;;;;;0.53;82.25;100961.27;1465333;88;21510;-89
2023/01/26 07:26:47;;;;;;;26.60;16.00;;;;;;;0.55;81.10;100956.84;1464409;88;22558;-90
2023/01/26 07:29:13;;;;;;;29.57;17.47;;;;;;;0.58;81.08;100956.70;1459408;87;21529;-90
2023/01/26 07:31:40;;;;;;;31.13;15.40;;;;;;;0.61;80.92;100954.41;1465909;88;22064;-93
2023/01/26 07:34:08;;;;;;;30.13;13.83;;;;;;;0.62;80.39;100953.48;1461822;88;21668;-90
2023/01/26 07:36:34;;;;;;;24.30;13.37;;;;;;;0.63;79.86;100951.25;1462814;88;21626;-93
2023/01/26 07:39:00;;;;;;;25.07;14.30;;;;;;;0.62;79.37;100950.88;1465093;89;21674;-93
2023/01/26 07:41:26;;;;;;;21.70;12.47;;;;;;;0.66;79.46;100952.41;1471468;89;21608;-90
2023/01/26 07:43:52;;;;;;;30.73;16.87;;;;;;;0.71;79.67;100948.30;1456983;89;22713;-93
2023/01/26 07:46:24;;;;;;;39.07;18.83;;;;;;;0.73;79.68;100945.17;1458025;88;21595;-94
2023/01/26 07:48:51;;;;;;;26.03;14.20;;;;;;;0.73;79.69;100942.57;1467371;88;21888;-92
2023/01/26 07:51:17;;;;;;;27.97;15.67;;;;;;;0.76;79.44;100941.95;1467340;89;22380;-92
2023/01/26 07:53:44;;;;;;;38.63;17.80;;;;;;;0.76;79.14;100938.05;1456110;89;21589;-94
2023/01/26 07:56:15;;;;;;;35.13;17.97;;;;;;;0.80;79.05;100944.79;1453788;89;21653;-93
2023/01/26 07:58:42;;;;;;;42.33;17.70;;;;;;;0.83;79.43;100942.03;1470508;89;21868;-93
2023/01/26 08:01:13;;;;;;;34.50;16.03;;;;;;;0.88;79.38;100942.67;1465159;89;22495;-92
2023/01/26 08:03:40;;;;;;;45.80;21.42;;;;;;;0.87;79.31;100942.77;1450562;88;21614;-93
2023/01/26 08:06:07;;;;;;;45.87;21.90;;;;;;;0.92;79.32;100945.13;1463572;88;21294;-94
2023/01/26 08:08:36;;;;;;;38.80;19.10;;;;;;;0.94;79.43;100939.39;1453933;88;21729;-92
2023/01/26 08:11:02;;;;;;;29.53;15.93;;;;;;;0.97;79.76;100937.94;1469612;88;21716;-95
2023/01/26 08:13:30;;;;;;;33.70;17.77;;;;;;;1.01;79.84;100939.50;1460044;89;21833;-92
2023/01/26 08:16:11;;;;;;;25.07;13.60;;;;;;;1.03;79.82;100940.25;1473704;88;21550;-92
2023/01/26 08:18:42;;;;;;;36.00;16.65;;;;;;;1.01;79.41;100940.34;1468908;89;22496;-88
2023/01/26 08:21:10;;;;;;;30.70;16.90;;;;;;;1.04;79.77;100938.05;1464868;88;21286;-92
2023/01/26 08:23:36;;;;;;;33.70;15.87;;;;;;;1.09;79.67;100939.95;1465868;89;21307;-92
2023/01/26 08:26:19;;;;;;;35.27;16.30;;;;;;;1.10;79.94;100931.23;1466503;88;21713;-92
2023/01/26 08:28:46;;;;;;;31.83;14.27;;;;;;;1.10;80.56;100943.80;1463429;86;22676;-93
2023/01/26 08:31:19;;;;;;;49.07;24.37;;;;;;;1.13;80.64;100934.98;1464178;88;21614;-89
2023/01/26 08:33:49;;;;;;;24.77;13.53;;;;;;;1.16;80.57;100937.44;1465064;88;21813;-93
2023/01/26 08:36:17;;;;;;;17.30;10.48;;;;;;;1.20;80.89;100932.45;1466800;89;22631;-92
2023/01/26 08:38:44;;;;;;;28.00;15.67;;;;;;;1.25;80.92;100936.14;1470686;89;21551;-90
2023/01/26 08:41:10;;;;;;;26.57;15.50;;;;;;;1.34;80.87;100939.59;1462809;88;22514;-92
2023/01/26 08:43:37;;;;;;;26.60;14.30;;;;;;;1.37;80.51;100937.30;1461391;89;21640;-92
2023/01/26 08:46:04;;;;;;;28.50;17.30;;;;;;;1.38;80.06;100942.89;1470151;88;21639;-93
2023/01/26 08:48:30;;;;;;;35.40;20.37;;;;;;;1.36;80.35;100945.59;1471051;88;21550;-93
2023/01/26 08:51:00;;;;;;;41.17;21.67;;;;;;;1.34;80.19;100947.42;1464821;89;22513;-92
2023/01/26 08:53:32;;;;;;;37.07;20.93;;;;;;;1.31;80.71;100943.20;1462504;89;22475;-93
2023/01/26 08:56:04;;;;;;;32.33;17.80;;;;;;;1.27;80.83;100945.59;1465911;88;21774;-95
2023/01/26 08:58:32;;;;;;;32.37;18.30;;;;;;;1.27;81.33;100945.59;1468114;89;21896;-92
2023/01/26 09:01:05;;;;;;;26.87;13.90;;;;;;;1.30;81.23;100949.34;1462248;89;22535;-93
2023/01/26 09:03:32;;;;;;;33.53;17.27;;;;;;;1.35;81.66;100952.58;1472786;89;22067;-94
2023/01/26 09:06:00;;;;;;;27.03;14.57;;;;;;;1.40;81.41;100953.64;1465839;88;21654;-93
2023/01/26 09:08:27;;;;;;;28.13;15.07;;;;;;;1.48;81.50;100951.96;1466376;89;21742;-90
2023/01/26 09:10:53;;;;;;;28.13;14.73;;;;;;;1.52;81.34;100943.88;1469256;88;21795;-94
2023/01/26 09:13:19;;;;;;;23.90;14.47;;;;;;;1.52;81.34;100943.88;1468594;89;22784;-94
2023/01/26 09:15:45;;;;;;;31.13;17.17;;;;;;;1.56;81.37;100949.81;1467659;88;21587;-94
2023/01/26 09:18:12;;;;;;;28.63;15.87;;;;;;;1.58;81.42;100950.56;1461908;88;22172;-92
2023/01/26 09:20:39;;;;;;;29.20;15.70;;;;;;;1.55;81.73;100941.15;1466029;88;22486;-94
2023/01/26 09:23:06;;;;;;;32.47;20.07;;;;;;;1.46;82.69;100940.75;1474815;89;21721;-93
2023/01/26 09:25:38;;;;;;;40.60;23.13;;;;;;;1.44;83.48;100941.28;1467852;89;21735;-94
2023/01/26 09:28:05;;;;;;;26.50;15.27;;;;;;;1.44;83.48;100941.28;1464068;88;21855;-93
2023/01/26 09:30:33;;;;;;;29.20;17.77;;;;;;;1.50;83.00;100939.70;1470137;89;21728;-92
2023/01/26 09:33:02;;;;;;;43.03;19.97;;;;;;;1.57;83.11;100941.06;1470379;89;22524;-94
2023/01/26 09:35:29;;;;;;;29.07;17.43;;;;;;;1.68;82.41;100942.66;1465680;89;22728;-93
2023/01/26 09:37:56;;;;;;;28.53;17.13;;;;;;;1.68;82.41;100942.66;1467520;89;21827;-92
2023/01/26 09:40:44;;;;;;;32.27;18.33;;;;;;;1.67;82.16;100942.30;1448730;89;21602;-93
2023/01/26 09:43:52;;;;;;;26.87;15.70;;;;;;;1.67;82.16;100942.30;1460864;85;22888;-92
2023/01/26 09:46:44;;;;;;;26.00;14.57;;;;;;;1.65;83.20;100937.60;1490130;87;21625;-93
2023/01/26 09:49:34;;;;;;;26.65;14.60;;;;;;;1.64;82.91;100937.23;1482954;87;21775;-94
2023/01/26 09:52:32;;;;;;;31.27;16.67;;;;;;;1.65;82.61;100933.69;1456843;89;21872;-91
2023/01/26 09:55:03;;;;;;;34.60;17.47;;;;;;;1.70;82.78;100926.94;1478392;88;22732;-92
2023/01/26 09:57:37;;;;;;;30.10;15.72;;;;;;;1.68;82.80;100921.79;1476720;88;21911;-94
2023/01/26 10:00:38;;;;;;;28.80;15.37;;;;;;;1.70;82.36;100916.04;1467617;87;21559;-91
2023/01/26 10:03:40;;;;;;;30.32;17.20;;;;;;;1.66;82.29;100910.58;1456482;89;21966;-90
2023/01/26 10:06:31;;;;;;;27.67;15.43;;;;;;;1.60;82.58;100907.45;1458417;89;21486;-94
2023/01/26 10:09:03;;;;;;;26.23;14.40;;;;;;;1.55;83.10;100916.80;1475961;88;21705;-91
2023/01/26 10:11:37;;;;;;;28.37;15.80;;;;;;;1.54;83.05;100904.22;1461313;89;21472;-91
2023/01/26 10:14:32;;;;;;;33.53;16.47;;;;;;;1.53;83.30;100909.53;1464122;89;21599;-92
2023/01/26 10:17:01;;;;;;;26.47;16.00;;;;;;;1.55;83.07;100905.93;1427777;89;22739;-91
2023/01/26 10:19:38;;;;;;;28.33;16.63;;;;;;;1.56;83.37;100906.30;1442050;90;22574;-90
2023/01/26 10:22:28;;;;;;;33.10;15.63;;;;;;;1.56;83.09;100902.86;1442058;90;21966;-90
2023/01/26 10:24:55;;;;;;;25.07;14.43;;;;;;;1.56;82.36;100893.26;1441101;90;21841;-87
2023/01/26 10:27:22;;;;;;;28.07;15.57;;;;;;;1.65;82.37;100899.77;1440714;90;21798;-92
2023/01/26 10:29:48;;;;;;;28.73;15.40;;;;;;;1.68;81.93;100888.33;1443241;90;21677;-88
2023/01/26 10:32:17;;;;;;;28.60;15.37;;;;;;;1.72;81.85;100889.38;1441174;90;23086;-89
2023/01/26 10:34:47;;;;;;;28.43;15.50;;;;;;;1.71;81.49;100885.56;1443845;90;21960;-90
2023/01/26 10:37:28;;;;;;;29.27;15.03;;;;;;;1.71;81.20;100880.34;1524698;90;21574;-88
2023/01/26 10:39:59;;;;;;;;;;;;;;;1.74;81.43;100873.19;1526989;90;21584;-90
2023/01/26 10:42:29;;;;;;;33.40;17.82;;;;;;;1.72;80.57;100875.49;1369870;90;20334;-93
2023/01/26 10:44:57;;;;;;;39.70;19.92;;;;;;;1.73;80.95;100871.52;1524584;90;22324;-91
2023/01/26 10:47:24;;;;;;;37.03;19.37;;;;;;;1.79;81.39;100868.58;1444467;90;21402;-90
2023/01/26 10:49:51;;;;;;;32.27;18.13;;;;;;;1.83;81.24;100864.03;1439848;90;21899;-88
2023/01/26 10:52:21;;;;;;;28.30;14.00;;;;;;;1.98;81.07;100861.06;1443017;90;21783;-91
2023/01/26 10:54:54;;;;;;;31.37;17.62;;;;;;;1.98;81.07;100861.06;1444522;90;21804;-89
2023/01/26 10:57:27;;;;;;;31.90;17.90;;;;;;;2.06;79.66;100852.36;1519207;90;21313;-88
2023/01/26 11:00:00;;;;;;;33.03;18.10;;;;;;;2.13;80.23;100851.13;1368373;92;22565;-85
2023/01/26 11:02:30;;;;;;;39.70;18.23;;;;;;;2.13;80.23;100851.13;1401509;90;21884;-85
2023/01/26 11:05:13;;;;;;;33.57;19.20;;;;;;;2.15;79.43;100838.80;1469352;90;21717;-90
2023/01/26 11:07:43;;;;;;;31.33;17.70;;;;;;;2.15;79.43;100838.80;1524806;90;21717;-87
2023/01/26 11:10:30;;;;;;;29.60;16.07;;;;;;;2.08;78.52;100823.11;1440134;90;21638;-92
2023/01/26 11:13:17;;;;;;;27.67;16.23;;;;;;;2.12;78.90;100832.91;1524844;90;21422;-91
2023/01/26 11:16:01;;;;;;;31.10;19.40;;;;;;;2.10;78.44;100829.09;1408674;90;22063;-93
2023/01/26 11:18:58;;;;;;;40.90;18.37;;;;;;;2.06;78.37;100812.36;1433314;90;22393;-90
2023/01/26 11:21:42;;;;;;;26.27;15.43;;;;;;;2.06;78.37;100812.36;1443101;90;22201;-89
2023/01/26 11:24:20;;;;;;;32.27;19.07;;;;;;;2.11;78.59;100812.96;1441819;90;22106;-94
2023/01/26 11:27:31;;;;;;;38.13;21.37;;;;;;;2.15;78.72;100810.08;1427017;90;21846;-88
2023/01/26 11:30:52;;;;;;;29.90;17.40;;;;;;;2.14;79.08;100800.57;1443377;90;22331;-91
2023/01/26 11:34:07;;;;;;;29.67;18.03;;;;;;;2.24;78.93;100804.81;1443230;90;21805;-93
2023/01/26 11:37:00;;;;;;;39.10;20.00;;;;;;;2.24;78.93;100804.81;1443557;90;22721;-89
2023/01/26 11:39:47;;;;;;;28.47;16.97;;;;;;;2.28;77.97;100789.84;1416990;90;22276;-89
2023/01/26 11:42:36;;;;;;;34.20;20.40;;;;;;;2.28;77.97;100789.84;1441911;90;21911;-90
2023/01/26 11:45:27;;;;;;;32.13;19.83;;;;;;;2.31;78.00;100790.50;1433122;90;22105;-86
2023/01/26 11:48:13;;;;;;;29.60;17.77;;;;;;;2.24;77.82;100780.87;1437740;90;21973;-89
2023/01/26 11:51:06;;;;;;;43.00;24.80;;;;;;;2.24;77.82;100780.87;1441565;90;21970;-88
2023/01/26 11:54:00;;;;;;;29.00;17.00;;;;;;;2.30;77.97;100780.13;1442652;90;21821;-91
2023/01/26 11:56:40;;;;;;;35.33;19.77;;;;;;;2.30;77.97;100780.13;1440364;90;22915;-91
2023/01/26 11:59:17;;;;;;;32.93;19.40;;;;;;;2.32;78.29;100776.97;1438958;90;22048;-88
2023/01/26 12:02:05;;;;;;;32.87;20.50;;;;;;;2.35;78.07;100768.96;1441264;90;21803;-88
2023/01/26 12:04:36;;;;;;;42.23;21.80;;;;;;;2.35;77.78;100771.10;1441457;90;21935;-91
2023/01/26 12:07:08;;;;;;;34.63;18.53;;;;;;;2.40;78.17;100766.94;1443949;90;22069;-87
2023/01/26 12:09:42;;;;;;;33.10;18.93;;;;;;;2.40;78.17;100766.94;1441101;90;22319;-91
2023/01/26 12:12:34;;;;;;;28.77;17.57;;;;;;;2.43;77.48;100760.23;1441489;90;21912;-85
2023/01/26 12:15:14;;;;;;;31.10;19.13;;;;;;;2.43;77.48;100760.23;1442529;90;21964;-89
2023/01/26 12:18:14;;;;;;;33.18;20.43;;;;;;;2.42;77.55;100760.70;1439912;90;22832;-92
2023/01/26 12:20:50;;;;;;;27.97;17.27;;;;;;;2.50;77.57;100758.94;1438999;90;21557;-91
2023/01/26 12:23:32;;;;;;;30.70;17.67;;;;;;;2.50;77.57;100758.94;1439250;90;22159;-89